Time;durP1;ratioP1;P1;durP2;ratioP2;P2;SDS_P1;SDS_P2;PMS_P1;PMS_P2;Temp;Humidity;BMP_temperature;BMP_pressure;BME280_temperature;BME280_humidity;BME280_pressure;Samples;Min_cycle;Max_cycle;Signal;HPM_P1;HPM_P2
2021/05/24 00:01:00;;;;;;;50.95;7.80;;;;;;;;;;3541719;40;20121;-67
2021/05/24 00:03:26;;;;;;;55.10;8.10;;;;;;;;;;3541039;40;20038;-68
2021/05/24 00:05:52;;;;;;;66.68;10.30;;;;;;;;;;3539079;40;20026;-68
2021/05/24 00:08:18;;;;;;;59.22;9.07;;;;;;;;;;3536829;40;20045;-68
2021/05/24 00:10:45;;;;;;;71.28;9.77;;;;;;;;;;3538243;40;20084;-68
2021/05/24 00:13:13;;;;;;;66.35;10.40;;;;;;;;;;3541012;40;20053;-68
2021/05/24 00:15:43;;;;;;;50.85;7.68;;;;;;;;;;3540826;40;20064;-68
2021/05/24 00:18:10;;;;;;;49.20;7.22;;;;;;;;;;3538822;40;20039;-68
2021/05/24 00:20:43;;;;;;;58.65;9.02;;;;;;;;;;3538835;40;20043;-68
2021/05/24 00:23:10;;;;;;;53.92;7.97;;;;;;;;;;3539007;40;20086;-68
2021/05/24 00:25:37;;;;;;;64.68;9.05;;;;;;;;;;3541841;40;20119;-68
2021/05/24 00:28:03;;;;;;;79.20;11.45;;;;;;;;;;3540577;40;20080;-68
2021/05/24 00:30:33;;;;;;;70.50;9.88;;;;;;;;;;3537667;40;20082;-68
2021/05/24 00:33:03;;;;;;;47.75;7.78;;;;;;;;;;3537517;40;20038;-68
2021/05/24 00:35:29;;;;;;;74.28;11.15;;;;;;;;;;3534862;40;20042;-68
2021/05/24 00:37:55;;;;;;;49.97;8.38;;;;;;;;;;3532680;40;20594;-67
2021/05/24 00:40:21;;;;;;;56.25;8.20;;;;;;;;;;3530942;40;20045;-67
2021/05/24 00:42:48;;;;;;;67.47;10.40;;;;;;;;;;3533949;40;20065;-67
2021/05/24 00:45:14;;;;;;;65.45;9.27;;;;;;;;;;3536579;40;20356;-67
2021/05/24 00:47:41;;;;;;;58.08;8.70;;;;;;;;;;3538300;40;20049;-67
2021/05/24 00:50:07;;;;;;;67.10;9.88;;;;;;;;;;3539966;40;20535;-67
2021/05/24 00:52:34;;;;;;;45.53;7.22;;;;;;;;;;3540978;40;20207;-67
2021/05/24 00:55:00;;;;;;;65.53;9.23;;;;;;;;;;3534959;40;20039;-67
2021/05/24 00:57:26;;;;;;;75.07;9.90;;;;;;;;;;3536808;40;20124;-68
2021/05/24 00:59:52;;;;;;;77.10;10.82;;;;;;;;;;3534986;40;20042;-68
2021/05/24 01:02:18;;;;;;;69.40;11.65;;;;;;;;;;3534341;40;20172;-67
2021/05/24 01:04:44;;;;;;;80.75;11.85;;;;;;;;;;3532856;40;20031;-69
2021/05/24 01:07:11;;;;;;;63.03;9.00;;;;;;;;;;3533763;40;20026;-67
2021/05/24 01:09:37;;;;;;;83.85;11.27;;;;;;;;;;3535429;40;20045;-67
2021/05/24 01:12:03;;;;;;;66.65;9.77;;;;;;;;;;3537187;40;20048;-68
2021/05/24 01:14:29;;;;;;;62.80;8.77;;;;;;;;;;3539246;40;20041;-69
2021/05/24 01:16:55;;;;;;;93.47;12.65;;;;;;;;;;3540201;40;20113;-67
2021/05/24 01:19:22;;;;;;;75.85;11.45;;;;;;;;;;3538403;40;20034;-67
2021/05/24 01:21:48;;;;;;;76.55;10.43;;;;;;;;;;3536720;40;20082;-69
2021/05/24 01:24:15;;;;;;;62.38;9.40;;;;;;;;;;3536420;40;20039;-67
2021/05/24 01:26:43;;;;;;;58.40;8.50;;;;;;;;;;3539542;40;20054;-67
2021/05/24 01:29:09;;;;;;;79.55;11.02;;;;;;;;;;3539938;40;20039;-67
2021/05/24 01:31:35;;;;;;;75.40;9.68;;;;;;;;;;3539743;40;20034;-67
2021/05/24 01:34:01;;;;;;;73.78;9.48;;;;;;;;;;3535514;40;20037;-67
2021/05/24 01:36:28;;;;;;;65.97;8.70;;;;;;;;;;3534837;40;20034;-67
2021/05/24 01:38:54;;;;;;;71.28;10.02;;;;;;;;;;3534505;40;20120;-68
2021/05/24 01:41:20;;;;;;;87.03;10.98;;;;;;;;;;3531340;40;20402;-67
2021/05/24 01:43:47;;;;;;;59.33;8.93;;;;;;;;;;3531869;40;20047;-67
2021/05/24 01:46:13;;;;;;;65.28;9.15;;;;;;;;;;3535504;40;20058;-67
2021/05/24 01:48:41;;;;;;;76.32;10.52;;;;;;;;;;3534859;40;20042;-67
2021/05/24 01:51:07;;;;;;;63.85;9.10;;;;;;;;;;3533622;40;20050;-67
2021/05/24 01:53:34;;;;;;;67.93;9.43;;;;;;;;;;3532074;40;20055;-67
2021/05/24 01:56:00;;;;;;;63.25;9.48;;;;;;;;;;3532029;40;20065;-67
2021/05/24 01:58:27;;;;;;;62.78;9.50;;;;;;;;;;3535164;40;20031;-67
2021/05/24 02:01:00;;;;;;;61.20;9.35;;;;;;;;;;3535132;40;20083;-67
2021/05/24 02:03:26;;;;;;;63.42;9.35;;;;;;;;;;3534783;40;20154;-67
2021/05/24 02:05:52;;;;;;;73.47;10.30;;;;;;;;;;3539228;40;20047;-67
2021/05/24 02:08:18;;;;;;;71.75;10.38;;;;;;;;;;3531898;40;20042;-67
2021/05/24 02:10:44;;;;;;;97.43;13.73;;;;;;;;;;3533512;40;20050;-69
2021/05/24 02:13:10;;;;;;;69.18;11.02;;;;;;;;;;3537069;40;20062;-67
2021/05/24 02:15:37;;;;;;;58.83;9.20;;;;;;;;;;3536118;40;20605;-67
2021/05/24 02:18:04;;;;;;;50.20;8.23;;;;;;;;;;3539578;40;20038;-67
2021/05/24 02:20:32;;;;;;;57.65;9.02;;;;;;;;;;3541535;40;20170;-67
2021/05/24 02:22:59;;;;;;;52.38;8.65;;;;;;;;;;3536701;40;20095;-68
2021/05/24 02:25:26;;;;;;;42.08;7.35;;;;;;;;;;3538514;40;20042;-67
2021/05/24 02:27:52;;;;;;;55.20;8.90;;;;;;;;;;3538895;40;20112;-67
2021/05/24 02:30:19;;;;;;;50.55;8.77;;;;;;;;;;3536099;40;20035;-67
2021/05/24 02:32:45;;;;;;;44.00;8.23;;;;;;;;;;3536032;40;20390;-67
2021/05/24 02:35:13;;;;;;;31.85;6.72;;;;;;;;;;3540647;40;20574;-67
2021/05/24 02:37:40;;;;;;;41.80;7.22;;;;;;;;;;3540758;40;20035;-67
2021/05/24 02:40:07;;;;;;;52.25;8.63;;;;;;;;;;3539763;40;20054;-67
2021/05/24 02:42:34;;;;;;;30.58;7.93;;;;;;;;;;3537837;40;20035;-67
2021/05/24 02:45:00;;;;;;;13.25;6.55;;;;;;;;;;3534460;40;20043;-67
2021/05/24 02:47:26;;;;;;;17.45;7.10;;;;;;;;;;3539906;40;20050;-67
2021/05/24 02:49:52;;;;;;;12.30;6.78;;;;;;;;;;3537357;40;20289;-67
2021/05/24 02:52:18;;;;;;;18.35;8.30;;;;;;;;;;3537532;40;20065;-66
2021/05/24 02:54:44;;;;;;;21.77;7.90;;;;;;;;;;3535813;40;20030;-67
2021/05/24 02:57:10;;;;;;;14.07;7.07;;;;;;;;;;3540929;40;20518;-67
2021/05/24 02:59:36;;;;;;;32.45;9.18;;;;;;;;;;3536388;40;20042;-66
2021/05/24 03:02:03;;;;;;;22.00;8.00;;;;;;;;;;3537123;40;20026;-67
2021/05/24 03:04:30;;;;;;;24.33;8.25;;;;;;;;;;3539637;40;20022;-67
2021/05/24 03:06:57;;;;;;;15.48;7.13;;;;;;;;;;3540073;40;20114;-67
2021/05/24 03:09:23;;;;;;;14.48;7.82;;;;;;;;;;3537542;40;20136;-67
2021/05/24 03:11:49;;;;;;;13.27;7.18;;;;;;;;;;3539088;40;20039;-67
2021/05/24 03:14:15;;;;;;;12.50;6.75;;;;;;;;;;3535867;40;20039;-66
2021/05/24 03:16:42;;;;;;;15.93;7.05;;;;;;;;;;3539872;40;20045;-65
2021/05/24 03:19:08;;;;;;;28.00;9.38;;;;;;;;;;3535859;40;20041;-66
2021/05/24 03:21:34;;;;;;;5.90;4.35;;;;;;;;;;3541678;40;20030;-59
2021/05/24 03:24:00;;;;;;;28.63;7.97;;;;;;;;;;3539728;40;20504;-59
2021/05/24 03:26:26;;;;;;;21.23;7.70;;;;;;;;;;3540254;40;20042;-59
2021/05/24 03:28:53;;;;;;;19.38;7.28;;;;;;;;;;3539349;40;20870;-59
2021/05/24 03:31:19;;;;;;;13.43;5.75;;;;;;;;;;3534760;40;20045;-59
2021/05/24 03:33:45;;;;;;;6.78;4.40;;;;;;;;;;3540265;40;20030;-59
2021/05/24 03:36:11;;;;;;;21.95;8.02;;;;;;;;;;3539744;40;20046;-59
2021/05/24 03:38:37;;;;;;;45.88;9.77;;;;;;;;;;3538818;40;20063;-59
2021/05/24 03:41:04;;;;;;;57.30;9.77;;;;;;;;;;3537946;40;20038;-59
2021/05/24 03:43:30;;;;;;;12.35;5.90;;;;;;;;;;3539198;40;20023;-59
2021/05/24 03:45:57;;;;;;;23.40;7.38;;;;;;;;;;3540681;40;20031;-59
2021/05/24 03:48:23;;;;;;;10.25;5.50;;;;;;;;;;3540169;40;20055;-59
2021/05/24 03:50:49;;;;;;;18.98;7.20;;;;;;;;;;3539720;40;20047;-59
2021/05/24 03:53:15;;;;;;;35.03;8.43;;;;;;;;;;3536494;40;20071;-59
2021/05/24 03:55:41;;;;;;;41.47;8.38;;;;;;;;;;3540584;40;20042;-59
2021/05/24 03:58:07;;;;;;;67.72;11.30;;;;;;;;;;3540992;40;20045;-59
2021/05/24 04:00:34;;;;;;;51.30;9.32;;;;;;;;;;3541368;40;20136;-60
2021/05/24 04:03:02;;;;;;;36.53;8.80;;;;;;;;;;3539503;40;20628;-60
2021/05/24 04:05:34;;;;;;;32.08;7.65;;;;;;;;;;3538453;40;20037;-60
2021/05/24 04:08:01;;;;;;;38.00;9.70;;;;;;;;;;3538577;40;20070;-60
2021/05/24 04:10:31;;;;;;;44.80;10.77;;;;;;;;;;3535055;40;20062;-59
2021/05/24 04:12:57;;;;;;;61.13;11.45;;;;;;;;;;3535706;40;20038;-60
2021/05/24 04:15:23;;;;;;;31.52;9.10;;;;;;;;;;3541344;40;20086;-60
2021/05/24 04:17:51;;;;;;;36.50;11.13;;;;;;;;;;3538245;40;20699;-60
2021/05/24 04:20:17;;;;;;;47.20;12.13;;;;;;;;;;3539323;40;20070;-59
2021/05/24 04:22:44;;;;;;;18.63;9.88;;;;;;;;;;3541786;40;20046;-60
2021/05/24 04:25:10;;;;;;;21.92;10.32;;;;;;;;;;3542812;40;20038;-60
2021/05/24 04:27:37;;;;;;;41.15;9.98;;;;;;;;;;3539558;40;20373;-60
2021/05/24 04:30:05;;;;;;;68.45;12.35;;;;;;;;;;3538257;40;20071;-59
2021/05/24 04:32:31;;;;;;;76.80;12.68;;;;;;;;;;3539611;40;20070;-60
2021/05/24 04:34:57;;;;;;;68.85;10.80;;;;;;;;;;3538023;40;20419;-60
2021/05/24 04:37:23;;;;;;;60.28;10.57;;;;;;;;;;3535901;40;20033;-60
2021/05/24 04:39:49;;;;;;;59.72;11.70;;;;;;;;;;3540021;40;20050;-60
2021/05/24 04:42:15;;;;;;;9.30;5.53;;;;;;;;;;3538136;40;20035;-60
2021/05/24 04:44:41;;;;;;;48.47;8.52;;;;;;;;;;3540578;40;20034;-60
2021/05/24 04:47:07;;;;;;;52.63;8.82;;;;;;;;;;3537128;40;20300;-60
2021/05/24 04:49:34;;;;;;;23.48;6.68;;;;;;;;;;3536026;40;20286;-60
2021/05/24 04:52:00;;;;;;;27.05;8.00;;;;;;;;;;3535539;40;20065;-60
2021/05/24 04:54:27;;;;;;;20.40;6.38;;;;;;;;;;3539603;40;20083;-60
2021/05/24 04:56:53;;;;;;;11.68;4.85;;;;;;;;;;3539124;40;20043;-60
2021/05/24 04:59:19;;;;;;;19.75;7.22;;;;;;;;;;3538908;40;20046;-60
2021/05/24 05:01:49;;;;;;;9.50;4.78;;;;;;;;;;3541106;40;20063;-60
2021/05/24 05:04:16;;;;;;;6.03;4.05;;;;;;;;;;3537095;40;20039;-60
2021/05/24 05:06:42;;;;;;;7.68;4.18;;;;;;;;;;3538949;40;20434;-60
2021/05/24 05:09:09;;;;;;;6.57;3.90;;;;;;;;;;3536896;40;20031;-60
2021/05/24 05:11:35;;;;;;;22.88;6.10;;;;;;;;;;3540202;40;20029;-60
2021/05/24 05:14:01;;;;;;;24.63;6.13;;;;;;;;;;3541840;40;20042;-60
2021/05/24 05:16:27;;;;;;;28.00;5.85;;;;;;;;;;3541840;40;20724;-60
2021/05/24 05:18:54;;;;;;;23.52;5.88;;;;;;;;;;3539832;40;20043;-59
2021/05/24 05:21:20;;;;;;;40.40;7.13;;;;;;;;;;3538741;40;20058;-60
2021/05/24 05:23:46;;;;;;;46.88;6.78;;;;;;;;;;3538837;40;20039;-60
2021/05/24 05:26:12;;;;;;;19.75;5.88;;;;;;;;;;3541335;40;20038;-60
2021/05/24 05:28:39;;;;;;;21.90;6.20;;;;;;;;;;3535457;40;20038;-60
2021/05/24 05:31:06;;;;;;;19.67;5.95;;;;;;;;;;3539290;40;20046;-60
2021/05/24 05:33:32;;;;;;;66.03;9.82;;;;;;;;;;3537292;40;20034;-60
2021/05/24 05:35:58;;;;;;;57.53;8.32;;;;;;;;;;3539811;40;20030;-60
2021/05/24 05:38:25;;;;;;;28.92;6.65;;;;;;;;;;3537349;40;20066;-60
2021/05/24 05:40:52;;;;;;;71.97;8.50;;;;;;;;;;3535808;40;20039;-60
2021/05/24 05:43:19;;;;;;;2.78;1.98;;;;;;;;;;3536137;40;20057;-60
2021/05/24 05:45:45;;;;;;;2.33;1.50;;;12.00;99.90;;;;;;3535487;40;20073;-60
2021/05/24 05:48:11;;;;;;;3.42;1.65;;;12.40;99.90;;;;;;3538819;40;20034;-60
2021/05/24 05:50:37;;;;;;;4.45;2.00;;;;;;;;;;3540307;40;20038;-60
2021/05/24 05:53:04;;;;;;;4.60;1.88;;;;;;;;;;3538106;40;20109;-61
2021/05/24 05:55:30;;;;;;;3.88;1.85;;;;;;;;;;3537514;40;20039;-60
2021/05/24 05:57:56;;;;;;;2.22;1.42;;;;;;;;;;3536814;40;20042;-60
2021/05/24 06:00:22;;;;;;;2.55;1.50;;;;;;;;;;3537803;40;20564;-62
2021/05/24 06:02:48;;;;;;;2.63;1.40;;;;;;;;;;3539460;40;20037;-60
2021/05/24 06:05:15;;;;;;;2.13;1.70;;;;;;;;;;3538871;40;20029;-60
2021/05/24 06:07:41;;;;;;;1.92;1.30;;;13.00;99.90;;;;;;3540398;40;20304;-60
2021/05/24 06:10:08;;;;;;;1.67;1.33;;;;;;;;;;3535489;40;20045;-60
2021/05/24 06:12:34;;;;;;;2.50;1.35;;;;;;;;;;3537680;40;20686;-60
2021/05/24 06:15:00;;;;;;;2.67;1.60;;;;;;;;;;3539444;40;20140;-60
2021/05/24 06:17:26;;;;;;;2.92;1.25;;;;;;;;;;3531564;40;20027;-62
2021/05/24 06:19:52;;;;;;;2.90;1.33;;;;;;;;;;3536038;40;20377;-60
2021/05/24 06:22:19;;;;;;;3.15;1.45;;;;;;;;;;3537080;40;20039;-60
2021/05/24 06:24:45;;;;;;;2.22;1.10;;;;;;;;;;3536748;40;20034;-60
2021/05/24 06:27:11;;;;;;;3.88;1.20;;;;;;;;;;3535796;40;20027;-59
2021/05/24 06:29:38;;;;;;;2.72;1.40;;;;;;;;;;3534483;40;20771;-60
2021/05/24 06:32:04;;;;;;;3.90;1.50;;;;;;;;;;3533714;40;20039;-60
2021/05/24 06:34:30;;;;;;;7.40;3.35;;;;;;;;;;3538380;40;20042;-60
2021/05/24 06:36:56;;;;;;;2.72;1.33;;;;;;;;;;3538361;40;20027;-60
2021/05/24 06:39:22;;;;;;;1.90;0.95;;;;;;;;;;3526250;40;20508;-61
2021/05/24 06:41:49;;;;;;;4.88;1.05;;;;;;;;;;3539557;40;20359;-60
2021/05/24 06:44:15;;;;;;;2.92;1.00;;;;;;;;;;3537629;40;20027;-60
2021/05/24 06:46:41;;;;;;;3.50;1.30;;;;;;;;;;3539276;40;20026;-60
2021/05/24 06:49:08;;;;;;;4.97;1.50;;;;;;;;;;3538180;40;20086;-60
2021/05/24 06:51:34;;;;;;;1.75;1.20;;;;;;;;;;3538249;40;20043;-60
2021/05/24 06:54:00;;;;;;;2.17;1.10;;;;;;;;;;3539967;40;20046;-68
2021/05/24 06:56:26;;;;;;;7.32;1.20;;;;;;;;;;3541416;40;20391;-69
2021/05/24 06:58:52;;;;;;;1.30;1.00;;;;;;;;;;3540135;40;20026;-67
2021/05/24 07:01:18;;;;;;;6.75;1.00;;;;;;;;;;3537869;40;20043;-67
2021/05/24 07:03:45;;;;;;;4.05;1.15;;;;;;;;;;3534269;40;20321;-67
2021/05/24 07:06:11;;;;;;;4.68;1.00;;;;;;;;;;3536074;40;20042;-66
2021/05/24 07:08:37;;;;;;;4.32;0.98;;;;;;;;;;3537343;40;20046;-69
2021/05/24 07:11:04;;;;;;;0.95;0.85;;;;;;;;;;3536305;40;20133;-68
2021/05/24 07:13:30;;;;;;;2.25;1.00;;;;;;;;;;3535808;40;20061;-68
2021/05/24 07:15:56;;;;;;;3.10;0.95;;;;;;;;;;3536333;40;20067;-68
2021/05/24 07:18:22;;;;;;;2.88;1.20;;;;;;;;;;3533298;40;20046;-68
2021/05/24 07:20:48;;;;;;;3.92;0.95;;;;;;;;;;3540321;40;20770;-68
2021/05/24 07:23:15;;;;;;;3.75;0.90;;;;;;;;;;3539461;40;20041;-68
2021/05/24 07:25:41;;;;;;;3.28;1.00;;;16.00;97.80;;;;;;3538323;40;20044;-68
2021/05/24 07:28:08;;;;;;;2.90;0.95;;;;;;;;;;3538054;40;20053;-69
2021/05/24 07:30:34;;;;;;;3.70;1.10;;;;;;;;;;3540816;40;20049;-68
2021/05/24 07:33:00;;;;;;;3.53;0.82;;;;;;;;;;3542028;40;20749;-69
2021/05/24 07:35:27;;;;;;;1.75;0.70;;;;;;;;;;3540113;40;20411;-68
2021/05/24 07:37:53;;;;;;;2.67;1.05;;;;;;;;;;3540333;40;20511;-69
2021/05/24 07:40:19;;;;;;;2.42;1.00;;;;;;;;;;3538302;40;20079;-69
2021/05/24 07:42:46;;;;;;;3.65;1.00;;;;;;;;;;3540636;40;20053;-68
2021/05/24 07:45:12;;;;;;;4.22;1.02;;;;;;;;;;3541077;40;20078;-68
2021/05/24 07:47:38;;;;;;;3.65;1.05;;;;;;;;;;3538780;40;20027;-68
2021/05/24 07:50:06;;;;;;;4.47;0.60;;;17.40;95.40;;;;;;3538542;40;20049;-68
2021/05/24 07:52:32;;;;;;;1.50;0.77;;;;;;;;;;3539602;40;20030;-68
2021/05/24 07:54:58;;;;;;;4.97;0.80;;;;;;;;;;3535819;40;20606;-69
2021/05/24 07:57:25;;;;;;;4.05;0.80;;;;;;;;;;3533148;40;20437;-68
2021/05/24 07:59:51;;;;;;;1.27;0.80;;;;;;;;;;3534320;40;20035;-67
2021/05/24 08:02:17;;;;;;;2.05;0.95;;;;;;;;;;3532924;40;20045;-67
2021/05/24 08:04:43;;;;;;;2.58;1.00;;;;;;;;;;3536520;40;20067;-68
2021/05/24 08:07:10;;;;;;;3.80;0.98;;;;;;;;;;3538026;40;20034;-67
2021/05/24 08:09:36;;;;;;;4.22;1.67;;;;;;;;;;3530960;40;20873;-67
2021/05/24 08:12:02;;;;;;;4.68;1.00;;;;;;;;;;3534714;40;20038;-68
2021/05/24 08:14:28;;;;;;;1.38;0.70;;;;;;;;;;3536175;40;20049;-67
2021/05/24 08:16:55;;;;;;;0.75;0.73;;;;;;;;;;3538512;40;20269;-66
2021/05/24 08:19:21;;;;;;;2.45;0.85;;;;;;;;;;3539116;40;20068;-67
2021/05/24 08:21:48;;;;;;;2.33;0.65;;;;;;;;;;3540579;40;20045;-67
2021/05/24 08:24:14;;;;;;;1.05;0.80;;;;;;;;;;3541616;40;20042;-68
2021/05/24 08:26:41;;;;;;;5.03;0.93;;;19.90;91.80;;;;;;3538969;40;20035;-67
2021/05/24 08:29:07;;;;;;;1.83;0.77;;;;;;;;;;3537671;40;20038;-67
2021/05/24 08:31:35;;;;;;;4.78;0.70;;;20.30;93.30;;;;;;3540035;40;20071;-67
2021/05/24 08:34:00;;;;;;;1.75;0.60;;;19.80;94.70;;;;;;3541668;40;20721;-67
2021/05/24 08:36:27;;;;;;;3.00;0.80;;;19.80;82.30;;;;;;3541925;40;20018;-67
2021/05/24 08:38:53;;;;;;;2.97;0.70;;;19.50;93.40;;;;;;3539574;40;20780;-67
2021/05/24 08:41:19;;;;;;;3.03;0.75;;;;;;;;;;3539317;40;20038;-67
2021/05/24 08:43:45;;;;;;;2.88;0.60;;;;;;;;;;3539611;40;20436;-67
2021/05/24 08:46:11;;;;;;;1.10;0.60;;;19.80;76.40;;;;;;3539184;40;20030;-67
2021/05/24 08:48:37;;;;;;;1.23;0.55;;;20.50;85.00;;;;;;3538139;40;20697;-67
2021/05/24 08:51:08;;;;;;;2.03;0.77;;;19.40;88.00;;;;;;3534477;40;20034;-66
2021/05/24 08:53:37;;;;;;;3.20;1.02;;;19.10;77.50;;;;;;3538901;40;20039;-68
2021/05/24 08:56:04;;;;;;;2.25;1.15;;;20.10;75.00;;;;;;3536505;40;20121;-68
2021/05/24 08:58:30;;;;;;;10.60;3.67;;;;;;;;;;3541306;40;20031;-68
2021/05/24 09:00:57;;;;;;;66.03;30.73;;;;;;;;;;3541935;40;20669;-67
2021/05/24 09:03:25;;;;;;;2.42;1.10;;;;;;;;;;3535280;40;20067;-68
2021/05/24 09:05:51;;;;;;;1.08;0.50;;;;;;;;;;3538650;40;20281;-67
2021/05/24 09:08:18;;;;;;;2.40;1.00;;;;;;;;;;3537150;40;20402;-67
2021/05/24 09:10:45;;;;;;;1.88;1.00;;;;;;;;;;3540919;40;20641;-67
2021/05/24 09:13:16;;;;;;;3.40;1.25;;;19.10;84.00;;;;;;3538327;40;20049;-67
2021/05/24 09:15:43;;;;;;;6.30;1.88;;;;;;;;;;3532967;40;20043;-67
2021/05/24 09:18:11;;;;;;;4.78;1.98;;;;;;;;;;3534856;40;20042;-67
2021/05/24 09:20:44;;;;;;;3.90;0.60;;;;;;;;;;3535673;40;20058;-68
2021/05/24 09:23:32;;;;;;;2.55;0.50;;;19.50;73.30;;;;;;3539277;40;20042;-67
2021/05/24 09:25:58;;;;;;;1.48;0.60;;;;;;;;;;3534213;40;20037;-67
2021/05/24 09:28:27;;;;;;;2.30;0.40;;;;;;;;;;3534431;40;20143;-67
2021/05/24 09:30:57;;;;;;;1.98;0.70;;;20.90;64.40;;;;;;3535531;40;20046;-67
2021/05/24 09:33:23;;;;;;;0.75;0.38;;;;;;;;;;3537345;40;20675;-67
2021/05/24 09:35:50;;;;;;;1.15;0.40;;;;;;;;;;3539023;40;20034;-66
2021/05/24 09:38:21;;;;;;;2.25;0.40;;;21.00;63.70;;;;;;3531851;40;20046;-67
2021/05/24 09:40:51;;;;;;;3.05;0.65;;;;;;;;;;3539277;40;20042;-68
2021/05/24 09:43:17;;;;;;;1.23;0.65;;;;;;;;;;3537512;40;20047;-67
2021/05/24 09:45:43;;;;;;;7.82;0.80;;;20.40;64.10;;;;;;3537232;40;20309;-67
2021/05/24 09:48:09;;;;;;;1.65;0.50;;;;;;;;;;3535369;40;20027;-68
2021/05/24 09:50:36;;;;;;;1.65;0.63;;;;;;;;;;3533628;40;20422;-67
2021/05/24 09:53:03;;;;;;;3.70;0.60;;;;;;;;;;3533624;40;20035;-67
2021/05/24 09:55:29;;;;;;;2.00;0.70;;;;;;;;;;3535883;40;20048;-68
2021/05/24 09:58:11;;;;;;;1.58;0.50;;;;;;;;;;3535906;40;20054;-68
2021/05/24 10:01:12;;;;;;;3.42;0.60;;;;;;;;;;3537011;40;20124;-67
2021/05/24 10:03:38;;;;;;;1.05;0.43;;;;;;;;;;3531050;40;20034;-66
2021/05/24 10:06:04;;;;;;;4.47;0.77;;;;;;;;;;3534976;40;20078;-67
2021/05/24 10:08:30;;;;;;;1.48;0.60;;;;;;;;;;3538100;40;20049;-67
2021/05/24 10:10:57;;;;;;;0.73;0.52;;;;;;;;;;3538823;40;20404;-72
2021/05/24 10:13:24;;;;;;;1.50;0.50;;;;;;;;;;3536007;40;20054;-72
2021/05/24 10:15:55;;;;;;;2.55;0.70;;;;;;;;;;3532936;40;20126;-70
2021/05/24 10:18:21;;;;;;;5.80;1.40;;;;;;;;;;3537744;40;20070;-72
2021/05/24 10:20:47;;;;;;;6.22;0.60;;;;;;;;;;3537716;40;20049;-71
2021/05/24 10:23:14;;;;;;;1.27;0.47;;;19.90;78.70;;;;;;3535499;40;20034;-70
2021/05/24 10:25:40;;;;;;;1.88;0.70;;;;;;;;;;3537669;40;20054;-71
2021/05/24 10:28:06;;;;;;;1.92;0.60;;;20.80;59.30;;;;;;3541732;40;20081;-72
2021/05/24 10:30:35;;;;;;;3.15;0.55;;;20.60;56.00;;;;;;3539179;40;20046;-72
2021/05/24 10:33:05;;;;;;;2.13;0.77;;;20.80;56.00;;;;;;3539779;40;20057;-71
2021/05/24 10:35:32;;;;;;;3.40;1.88;;;20.70;67.00;;;;;;3539612;40;20034;-70
2021/05/24 10:37:58;;;;;;;1.83;0.60;;;20.60;57.00;;;;;;3541162;40;20038;-71
2021/05/24 10:40:25;;;;;;;6.15;0.52;;;;;;;;;;3534458;40;20043;-72
2021/05/24 10:43:07;;;;;;;2.97;0.47;;;21.60;58.10;;;;;;3537457;40;20393;-72
2021/05/24 10:45:33;;;;;;;1.75;0.60;;;;;;;;;;3539662;40;20101;-73
2021/05/24 10:48:00;;;;;;;0.82;0.50;;;;;;;;;;3537648;40;20051;-67
2021/05/24 10:50:29;;;;;;;0.77;0.60;;;21.90;53.70;;;;;;3535916;40;20038;-67
2021/05/24 10:52:59;;;;;;;1.30;0.63;;;21.60;53.40;;;;;;3532718;40;20040;-67
2021/05/24 10:55:30;;;;;;;1.42;0.47;;;20.80;52.30;;;;;;3540809;40;20434;-67
2021/05/24 10:58:02;;;;;;;3.08;0.50;;;21.20;54.10;;;;;;3537629;40;20458;-68
2021/05/24 11:00:46;;;;;;;2.25;0.50;;;21.50;55.80;;;;;;3537696;40;20057;-67
2021/05/24 11:03:12;;;;;;;2.55;0.40;;;;;;;;;;3537130;40;20137;-67
2021/05/24 11:05:38;;;;;;;1.92;0.40;;;;;;;;;;3534556;40;20402;-66
2021/05/24 11:08:08;;;;;;;1.83;0.40;;;;;;;;;;3541512;40;20043;-68
2021/05/24 11:10:54;;;;;;;2.22;0.47;;;21.80;49.40;;;;;;3538415;40;20042;-61
2021/05/24 11:13:21;;;;;;;0.93;0.40;;;21.90;50.50;;;;;;3538264;40;20153;-61
2021/05/24 11:15:48;;;;;;;3.20;0.50;;;22.50;53.50;;;;;;3538962;40;20077;-61
2021/05/24 11:18:17;;;;;;;2.67;0.80;;;22.30;48.70;;;;;;3535617;40;20101;-60
2021/05/24 11:20:48;;;;;;;1.67;0.40;;;;;;;;;;3540993;40;20039;-60
2021/05/24 11:26:11;;;;;;;1.83;0.43;;;23.00;47.80;;;;;;3539079;40;20035;-63
2021/05/24 11:28:52;;;;;;;1.08;0.40;;;22.90;48.80;;;;;;3534881;40;20046;-65
2021/05/24 11:31:23;;;;;;;0.40;0.30;;;23.20;50.90;;;;;;3536173;40;20046;-64
2021/05/24 11:33:50;;;;;;;1.23;0.50;;;;;;;;;;3536355;40;20030;-63
2021/05/24 11:36:39;;;;;;;0.60;0.43;;;22.90;48.40;;;;;;3538119;40;20027;-65
2021/05/24 11:39:12;;;;;;;2.13;0.55;;;23.70;46.00;;;;;;3538819;40;20487;-63
2021/05/24 11:41:59;;;;;;;2.10;0.40;;;23.50;46.30;;;;;;3539769;40;20132;-63
2021/05/24 11:44:29;;;;;;;2.30;0.47;;;23.30;45.60;;;;;;3535947;40;20043;-63
2021/05/24 11:46:59;;;;;;;3.92;0.65;;;22.90;51.10;;;;;;3535395;40;20133;-64
2021/05/24 11:49:39;;;;;;;5.47;0.60;;;24.00;48.00;;;;;;3538906;40;20043;-64
2021/05/24 11:52:08;;;;;;;2.45;0.60;;;24.50;44.90;;;;;;3536307;40;20034;-63
2021/05/24 11:54:34;;;;;;;0.50;0.20;;;;;;;;;;3548993;40;20042;-64
2021/05/24 11:57:05;;;;;;;0.88;0.30;;;24.30;44.20;;;;;;3540740;40;20059;-63
2021/05/24 11:59:32;;;;;;;1.35;0.40;;;24.10;59.00;;;;;;3536356;40;20039;-61
2021/05/24 12:01:59;;;;;;;2.00;0.40;;;23.90;44.80;;;;;;3537843;40;20328;-60
2021/05/24 12:04:25;;;;;;;8.35;4.90;;;;;;;;;;3540294;40;20053;-61
2021/05/24 12:06:59;;;;;;;1.08;0.50;;;23.90;45.20;;;;;;3535836;40;20038;-61
2021/05/24 12:09:50;;;;;;;2.05;0.88;;;24.30;44.30;;;;;;3535539;40;20435;-61
2021/05/24 12:12:21;;;;;;;5.78;1.20;;;24.10;45.20;;;;;;3535202;40;20622;-61
2021/05/24 12:14:48;;;;;;;1.48;0.40;;;24.30;46.10;;;;;;3538314;40;20042;-61
2021/05/24 12:17:19;;;;;;;3.03;1.75;;;24.30;50.60;;;;;;3538859;40;20109;-61
2021/05/24 12:19:46;;;;;;;1.42;0.55;;;24.40;47.80;;;;;;3533390;40;20104;-64
2021/05/24 12:22:14;;;;;;;1.58;0.60;;;24.90;48.60;;;;;;3537060;40;20038;-64
2021/05/24 12:24:47;;;;;;;2.88;0.50;;;25.30;44.70;;;;;;3537181;40;20043;-60
2021/05/24 12:27:14;;;;;;;3.55;0.43;;;24.50;44.20;;;;;;3538325;40;20149;-60
2021/05/24 12:30:16;;;;;;;2.15;0.50;;;24.30;45.10;;;;;;3535256;40;20035;-61
2021/05/24 12:32:47;;;;;;;0.52;0.38;;;25.30;46.80;;;;;;3535184;40;20049;-60
2021/05/24 12:35:16;;;;;;;4.57;0.63;;;25.20;43.20;;;;;;3533518;40;20047;-61
2021/05/24 12:37:50;;;;;;;2.35;0.40;;;25.10;44.30;;;;;;3536031;40;20324;-60
2021/05/24 12:40:17;;;;;;;3.03;0.53;;;25.70;43.10;;;;;;3536968;40;20632;-60
2021/05/24 12:42:43;;;;;;;0.70;0.38;;;;;;;;;;3535894;40;20035;-61
2021/05/24 12:45:11;;;;;;;36.58;17.75;;;26.50;42.80;;;;;;3535408;40;20054;-61
2021/05/24 12:47:38;;;;;;;2.40;0.70;;;;;;;;;;3539905;40;20039;-61
2021/05/24 12:50:09;;;;;;;0.98;0.70;;;27.80;45.60;;;;;;3533968;40;20144;-63
2021/05/24 12:52:35;;;;;;;2.30;0.50;;;;;;;;;;3537648;40;20038;-62
2021/05/24 12:55:14;;;;;;;1.63;0.60;;;26.70;43.40;;;;;;3536962;40;20034;-62
2021/05/24 12:57:48;;;;;;;1.05;0.40;;;26.60;43.20;;;;;;3533213;40;20116;-61
2021/05/24 13:00:16;;;;;;;1.55;0.50;;;26.40;42.00;;;;;;3535055;40;20033;-62
2021/05/24 13:02:50;;;;;;;0.50;0.43;;;27.40;42.10;;;;;;3537134;40;20097;-65
2021/05/24 13:05:19;;;;;;;0.52;0.30;;;27.50;42.80;;;;;;3538039;40;20034;-65
2021/05/24 13:07:50;;;;;;;2.38;0.50;;;26.60;43.00;;;;;;3538909;40;20030;-65
2021/05/24 13:10:16;;;;;;;1.25;0.52;;;;;;;;;;3537311;40;20038;-64
2021/05/24 13:12:45;;;;;;;2.72;0.50;;;25.40;42.50;;;;;;3533872;40;20401;-62
2021/05/24 13:15:14;;;;;;;3.60;0.80;;;25.60;44.70;;;;;;3538422;40;20044;-62
2021/05/24 13:18:17;;;;;;;3.92;0.50;;;25.80;42.90;;;;;;3536882;40;20432;-62
2021/05/24 13:21:18;;;;;;;1.45;0.65;;;25.10;41.50;;;;;;3537435;40;20650;-61
2021/05/24 13:32:26;;;;;;;1.42;0.50;;;23.80;44.00;;;;;;3537522;40;20054;-61
2021/05/24 13:34:53;;;;;;;0.70;0.50;;;24.30;43.10;;;;;;3534286;40;20039;-62
2021/05/24 13:37:19;;;;;;;3.35;0.50;;;24.50;44.20;;;;;;3532238;40;20034;-61
2021/05/24 13:39:45;;;;;;;1.55;0.50;;;24.70;44.50;;;;;;3534970;40;20039;-62
2021/05/24 13:42:11;;;;;;;2.92;0.60;;;25.40;42.40;;;;;;3536191;40;20125;-62
2021/05/24 13:44:37;;;;;;;2.78;0.68;;;24.80;41.60;;;;;;3534468;40;20054;-62
2021/05/24 13:47:04;;;;;;;2.30;0.38;;;26.00;42.30;;;;;;3535980;40;20030;-67
2021/05/24 13:49:32;;;;;;;2.10;0.52;;;24.80;42.60;;;;;;3539365;40;20454;-68
2021/05/24 13:51:59;;;;;;;2.30;0.60;;;24.60;43.30;;;;;;3539223;40;20456;-67
2021/05/24 13:54:25;;;;;;;1.17;0.40;;;24.60;43.50;;;;;;3536869;40;20321;-67
2021/05/24 13:56:51;;;;;;;1.58;0.50;;;24.50;43.30;;;;;;3536490;40;20053;-68
2021/05/24 13:59:16;;;;;;;2.65;1.55;;;23.90;43.20;;;;;;3534660;40;20441;-67
2021/05/24 14:01:43;;;;;;;2.08;0.70;;;24.30;44.70;;;;;;3531840;40;20599;-68
2021/05/24 14:04:09;;;;;;;1.10;0.52;;;24.10;43.40;;;;;;3533150;40;20038;-68
2021/05/24 14:06:35;;;;;;;1.30;0.75;;;23.90;45.60;;;;;;3534773;40;20117;-68
2021/05/24 14:09:01;;;;;;;5.70;2.63;;;24.40;44.60;;;;;;3535603;40;20049;-69
2021/05/24 14:11:26;;;;;;;0.50;0.30;;;24.70;45.70;;;;;;3539536;40;20049;-68
2021/05/24 14:13:52;;;;;;;1.65;0.57;;;24.70;44.60;;;;;;3531580;40;20054;-68
2021/05/24 14:16:19;;;;;;;2.03;0.50;;;24.10;43.40;;;;;;3538827;40;20421;-68